createdAt,value
2023-02-02T00:00:52.611Z,96998.00
2023-02-02T00:03:21.512Z,96992.38
2023-02-02T00:05:50.209Z,97006.81
2023-02-02T00:08:18.243Z,96997.44
2023-02-02T00:10:45.993Z,97002.69
2023-02-02T00:13:13.570Z,97012.59
2023-02-02T00:15:41.245Z,97006.69
2023-02-02T00:18:08.832Z,97014.53
2023-02-02T00:20:37.709Z,97009.84
2023-02-02T00:23:05.246Z,97019.91
2023-02-02T00:25:33.284Z,97020.59
2023-02-02T00:28:00.963Z,97042.44
2023-02-02T00:30:28.508Z,97042.47
2023-02-02T00:32:56.089Z,97035.03
2023-02-02T00:35:23.828Z,97040.53
2023-02-02T00:37:52.783Z,97046.03
2023-02-02T00:40:20.625Z,97045.47
2023-02-02T00:42:50.313Z,97060.22
2023-02-02T00:45:17.297Z,97065.13
2023-02-02T00:47:46.313Z,97084.78
2023-02-02T00:50:15.982Z,97083.63
2023-02-02T00:52:43.829Z,97088.78
2023-02-02T00:55:13.890Z,97102.31
2023-02-02T00:57:44.198Z,97100.00
2023-02-02T01:00:14.081Z,97103.34
2023-02-02T01:02:41.629Z,97106.88
2023-02-02T01:05:09.662Z,97098.38
2023-02-02T01:07:37.201Z,97117.03
2023-02-02T01:10:05.011Z,97135.00
2023-02-02T01:12:34.061Z,97128.03
2023-02-02T01:15:01.982Z,97128.63
2023-02-02T01:17:30.130Z,97118.53
2023-02-02T01:19:57.638Z,97139.81
2023-02-02T01:22:25.155Z,97147.13
2023-02-02T01:24:52.668Z,97150.56
2023-02-02T01:27:20.218Z,97165.00
2023-02-02T01:29:49.133Z,97167.03
2023-02-02T01:32:16.599Z,97164.56
2023-02-02T01:34:44.236Z,97158.28
2023-02-02T01:37:11.793Z,97154.28
2023-02-02T01:39:39.317Z,97157.59
2023-02-02T01:42:13.704Z,97148.84
2023-02-02T01:45:15.805Z,97155.69
2023-02-02T01:47:48.310Z,97150.50
2023-02-02T01:50:19.358Z,97151.44
2023-02-02T01:52:49.802Z,97153.47
2023-02-02T01:55:20.222Z,97150.72
2023-02-02T01:57:52.610Z,97154.28
2023-02-02T02:00:25.526Z,97158.06
2023-02-02T02:02:55.001Z,97166.81
2023-02-02T02:05:27.434Z,97157.09
2023-02-02T02:07:58.280Z,97159.94
2023-02-02T02:10:25.968Z,97161.13
2023-02-02T02:12:53.472Z,97161.44
2023-02-02T02:15:40.130Z,97157.91
2023-02-02T02:18:16.686Z,97176.00
2023-02-02T02:21:26.157Z,97178.00
2023-02-02T02:24:54.501Z,97173.16
2023-02-02T02:28:00.948Z,97194.78
2023-02-02T02:30:40.653Z,97183.31
2023-02-02T02:33:13.816Z,97195.00
2023-02-02T02:35:43.873Z,97187.41
2023-02-02T02:38:16.857Z,97191.69
2023-02-02T02:40:48.337Z,97181.41
2023-02-02T02:43:18.559Z,97184.94
2023-02-02T02:45:46.318Z,97183.16
2023-02-02T02:48:15.479Z,97190.03
2023-02-02T02:50:43.020Z,97194.75
2023-02-02T02:53:13.810Z,97182.28
2023-02-02T02:55:47.889Z,97173.53
2023-02-02T02:58:18.246Z,97170.72
2023-02-02T03:00:50.499Z,97169.03
2023-02-02T03:03:27.256Z,97175.09
2023-02-02T03:05:59.982Z,97177.34
2023-02-02T03:08:30.661Z,97185.91
2023-02-02T03:10:59.224Z,97194.41
2023-02-02T03:13:27.795Z,97193.25
2023-02-02T03:15:56.039Z,97198.69
2023-02-02T03:18:27.287Z,97201.50
2023-02-02T03:20:54.890Z,97208.13
2023-02-02T03:23:22.710Z,97204.09
2023-02-02T03:25:50.647Z,97199.16
2023-02-02T03:28:19.165Z,97206.13
2023-02-02T03:30:47.759Z,97215.59
2023-02-02T03:33:15.996Z,97213.28
2023-02-02T03:35:44.840Z,97214.25
2023-02-02T03:38:13.216Z,97213.66
2023-02-02T03:40:41.052Z,97222.06
2023-02-02T03:43:08.619Z,97213.31
2023-02-02T03:45:37.278Z,97236.38
2023-02-02T03:48:05.856Z,97230.97
2023-02-02T03:50:33.497Z,97225.44
2023-02-02T03:53:02.345Z,97225.50
2023-02-02T03:55:30.002Z,97226.38
2023-02-02T03:57:58.636Z,97223.78
2023-02-02T04:00:26.153Z,97223.06
2023-02-02T04:02:55.070Z,97235.47
2023-02-02T04:05:22.834Z,97231.19
2023-02-02T04:07:50.558Z,97233.25
2023-02-02T04:10:19.802Z,97235.31
2023-02-02T04:12:47.377Z,97237.03
2023-02-02T04:15:14.907Z,97233.56
2023-02-02T04:17:42.422Z,97240.44
2023-02-02T04:20:11.376Z,97232.31
2023-02-02T04:22:40.670Z,97245.41
2023-02-02T04:25:09.212Z,97239.31
2023-02-02T04:27:38.138Z,97237.50
2023-02-02T04:30:06.854Z,97251.38
2023-02-02T04:32:34.589Z,97240.84
2023-02-02T04:35:02.213Z,97245.00
2023-02-02T04:37:31.792Z,97251.50
2023-02-02T04:39:59.752Z,97249.53
2023-02-02T04:42:27.376Z,97248.53
2023-02-02T04:44:56.768Z,97255.09
2023-02-02T04:47:24.438Z,97243.25
2023-02-02T04:49:52.073Z,97255.00
2023-02-02T04:52:19.735Z,97250.84
2023-02-02T04:54:47.373Z,97250.47
2023-02-02T04:57:14.949Z,97255.34
2023-02-02T04:59:42.654Z,97259.22
2023-02-02T05:02:11.648Z,97258.50
2023-02-02T05:04:39.341Z,97257.84
2023-02-02T05:07:07.013Z,97261.59
2023-02-02T05:09:34.684Z,97274.63
2023-02-02T05:12:02.303Z,97276.63
2023-02-02T05:14:29.938Z,97280.00
2023-02-02T05:16:57.991Z,97268.69
2023-02-02T05:19:27.020Z,97277.94
2023-02-02T05:21:54.810Z,97282.78
2023-02-02T05:24:22.375Z,97287.56
2023-02-02T05:26:50.113Z,97282.25
2023-02-02T05:29:17.778Z,97280.94
2023-02-02T05:31:45.521Z,97287.41
2023-02-02T05:34:13.482Z,97282.19
2023-02-02T05:36:42.615Z,97288.94
2023-02-02T05:39:10.798Z,97291.88
2023-02-02T05:41:38.388Z,97292.38
2023-02-02T05:44:06.387Z,97293.84
2023-02-02T05:46:34.008Z,97299.06
2023-02-02T05:49:04.863Z,97301.22
2023-02-02T05:51:34.609Z,97294.97
2023-02-02T05:54:03.655Z,97295.38
2023-02-02T05:56:31.314Z,97300.28
2023-02-02T05:59:00.115Z,97298.63
2023-02-02T06:01:27.931Z,97308.22
2023-02-02T06:03:55.752Z,97296.03
2023-02-02T06:06:23.417Z,97297.81
2023-02-02T06:08:51.087Z,97301.53
2023-02-02T06:11:20.519Z,97299.06
2023-02-02T06:13:48.229Z,97305.84
2023-02-02T06:16:16.047Z,97299.56
2023-02-02T06:18:45.249Z,97305.53
2023-02-02T06:21:12.808Z,97306.38
2023-02-02T06:23:45.528Z,97305.84
2023-02-02T06:26:13.181Z,97307.81
2023-02-02T06:28:42.081Z,97310.31
2023-02-02T06:31:11.221Z,97299.59
2023-02-02T06:33:38.974Z,97310.81
2023-02-02T06:36:08.105Z,97314.44
2023-02-02T06:38:35.822Z,97303.31
2023-02-02T06:41:03.912Z,97313.84
2023-02-02T06:43:31.712Z,97313.63
2023-02-02T06:46:00.863Z,97313.22
2023-02-02T06:48:28.729Z,97313.94
2023-02-02T06:50:59.218Z,97316.69
2023-02-02T06:53:26.933Z,97306.78
2023-02-02T06:55:55.404Z,97310.91
2023-02-02T06:58:23.267Z,97317.97
2023-02-02T07:00:50.875Z,97322.94
2023-02-02T07:03:21.394Z,97318.84
2023-02-02T07:05:49.365Z,97323.09
2023-02-02T07:08:17.034Z,97325.25
2023-02-02T07:11:10.773Z,97325.75
2023-02-02T07:13:32.404Z,97330.03
2023-02-02T07:16:00.350Z,97334.56
2023-02-02T07:18:29.400Z,97336.56
2023-02-02T07:20:59.709Z,97318.72
2023-02-02T07:23:27.498Z,97326.69
2023-02-02T07:26:02.084Z,97328.16
2023-02-02T07:28:29.929Z,97326.16
2023-02-02T07:30:57.757Z,97333.34
2023-02-02T07:33:25.511Z,97337.69
2023-02-02T07:35:54.524Z,97332.75
2023-02-02T07:38:22.318Z,97333.25
2023-02-02T07:40:49.963Z,97330.97
2023-02-02T07:43:19.387Z,97334.06
2023-02-02T07:45:47.040Z,97334.66
2023-02-02T07:48:14.622Z,97337.69
2023-02-02T07:50:42.645Z,97346.31
2023-02-02T07:53:11.739Z,97342.69
2023-02-02T07:55:39.611Z,97339.34
2023-02-02T07:58:07.908Z,97349.69
2023-02-02T08:00:35.574Z,97347.34
2023-02-02T08:03:03.316Z,97352.88
2023-02-02T08:05:32.091Z,97346.00
2023-02-02T08:07:59.719Z,97351.97
2023-02-02T08:10:28.753Z,97346.00
2023-02-02T08:12:56.393Z,97350.53
2023-02-02T08:15:24.452Z,97353.47
2023-02-02T08:17:52.389Z,97353.38
2023-02-02T08:20:20.600Z,97360.31
2023-02-02T08:22:48.309Z,97361.66
2023-02-02T08:25:15.994Z,97364.44
2023-02-02T08:27:45.368Z,97358.56
2023-02-02T08:30:13.925Z,97366.78
2023-02-02T08:32:41.591Z,97368.94
2023-02-02T08:35:09.653Z,97372.50
2023-02-02T08:37:37.327Z,97373.44
2023-02-02T08:40:05.682Z,97372.28
2023-02-02T08:42:33.379Z,97380.34
2023-02-02T08:46:02.657Z,97377.50
2023-02-02T08:48:05.496Z,97358.22
2023-02-02T08:50:38.281Z,97375.06
2023-02-02T08:53:06.045Z,97377.22
2023-02-02T08:55:33.691Z,97373.09
2023-02-02T08:58:01.294Z,97382.69
2023-02-02T09:00:30.349Z,97384.38
2023-02-02T09:02:57.948Z,97380.19
2023-02-02T09:05:25.838Z,97382.63
2023-02-02T09:07:53.676Z,97379.16
2023-02-02T09:10:21.326Z,97385.31
2023-02-02T09:12:48.960Z,97382.53
2023-02-02T09:15:17.007Z,97385.22
2023-02-02T09:17:46.059Z,97376.88
2023-02-02T09:20:14.016Z,97386.53
2023-02-02T09:22:41.693Z,97382.47
2023-02-02T09:25:09.650Z,97382.00
2023-02-02T09:27:39.643Z,97382.25
2023-02-02T09:30:08.415Z,97390.53
2023-02-02T09:32:36.119Z,97385.22
2023-02-02T09:35:05.607Z,97389.97
2023-02-02T09:37:34.865Z,97397.75
2023-02-02T09:40:03.076Z,97391.41
2023-02-02T09:42:45.502Z,97393.94
2023-02-02T09:45:20.007Z,97394.63
2023-02-02T09:47:55.325Z,97400.00
2023-02-02T09:50:33.326Z,97410.47
2023-02-02T09:53:03.903Z,97403.81
2023-02-02T09:55:35.657Z,97408.22
2023-02-02T09:58:09.200Z,97411.25
2023-02-02T10:00:40.230Z,97397.50
2023-02-02T10:03:11.911Z,97409.31
2023-02-02T10:05:47.560Z,97398.03
2023-02-02T10:08:33.911Z,97407.19
2023-02-02T10:11:05.590Z,97413.75
2023-02-02T10:13:37.882Z,97408.97
2023-02-02T10:16:08.396Z,97408.38
2023-02-02T10:18:41.126Z,97412.50
2023-02-02T10:21:12.602Z,97414.09
2023-02-02T10:23:44.455Z,97409.09
2023-02-02T10:26:17.639Z,97408.91
2023-02-02T10:28:55.822Z,97403.47
2023-02-02T10:31:32.573Z,97406.59
2023-02-02T10:34:05.765Z,97402.38
2023-02-02T10:36:45.738Z,97408.94
2023-02-02T10:39:21.369Z,97399.00
2023-02-02T10:41:55.900Z,97405.63
2023-02-02T10:44:33.940Z,97403.28
2023-02-02T10:47:04.817Z,97404.44
2023-02-02T10:49:35.050Z,97383.84
2023-02-02T10:52:08.554Z,97404.72
2023-02-02T10:54:55.724Z,97401.50
2023-02-02T10:57:34.214Z,97405.63
2023-02-02T11:00:06.783Z,97400.13
2023-02-02T11:02:34.490Z,97392.59
2023-02-02T11:05:19.679Z,97397.50
2023-02-02T11:07:48.809Z,97391.66
2023-02-02T11:10:17.057Z,97389.88
2023-02-02T11:12:52.960Z,97391.56
2023-02-02T11:15:26.096Z,97398.00
2023-02-02T11:17:54.281Z,97395.56
2023-02-02T11:20:32.651Z,97395.09
2023-02-02T11:23:03.189Z,97392.44
2023-02-02T11:25:33.906Z,97386.81
2023-02-02T11:28:03.498Z,97384.31
2023-02-02T11:30:34.777Z,97383.47
2023-02-02T11:33:22.569Z,97388.09
2023-02-02T11:35:57.872Z,97379.63
2023-02-02T11:38:27.561Z,97393.16
2023-02-02T11:40:57.834Z,97389.81
2023-02-02T11:43:28.510Z,97394.63
2023-02-02T11:46:00.266Z,97387.13
2023-02-02T11:48:33.227Z,97391.16
2023-02-02T11:51:02.022Z,97387.72
2023-02-02T11:53:32.825Z,97388.09
2023-02-02T11:56:02.703Z,97382.88
2023-02-02T11:58:33.029Z,97383.25
2023-02-02T12:01:02.552Z,97379.97
2023-02-02T12:03:36.021Z,97378.25
2023-02-02T12:06:19.712Z,97380.50
2023-02-02T12:08:48.904Z,97376.47
2023-02-02T12:11:26.038Z,97371.94
2023-02-02T12:14:01.947Z,97374.81
2023-02-02T12:16:42.460Z,97369.09
2023-02-02T12:19:35.903Z,97375.47
2023-02-02T12:22:08.938Z,97377.56
2023-02-02T12:24:43.685Z,97380.19
2023-02-02T12:27:19.431Z,97376.88
2023-02-02T12:30:11.989Z,97379.69
2023-02-02T12:32:51.921Z,97372.13
2023-02-02T12:35:29.510Z,97373.22
2023-02-02T12:38:04.866Z,97372.94
2023-02-02T12:40:55.747Z,97377.81
2023-02-02T12:43:32.531Z,97370.53
2023-02-02T12:46:12.023Z,97382.09
2023-02-02T12:48:47.137Z,97391.63
2023-02-02T12:51:24.438Z,97386.06
2023-02-02T12:54:33.795Z,97379.25
2023-02-02T12:57:02.896Z,97381.38
2023-02-02T12:59:49.128Z,97395.75
2023-02-02T13:02:23.938Z,97393.78
2023-02-02T13:05:00.934Z,97391.41
2023-02-02T13:07:33.735Z,97389.50
2023-02-02T13:10:12.855Z,97386.19
2023-02-02T13:12:44.828Z,97391.47
2023-02-02T13:15:14.576Z,97393.16
2023-02-02T13:17:44.405Z,97390.44
2023-02-02T13:20:20.042Z,97402.88
2023-02-02T13:22:49.204Z,97401.94
2023-02-02T13:25:21.046Z,97407.19
2023-02-02T13:27:50.659Z,97397.34
2023-02-02T13:30:27.117Z,97397.13
2023-02-02T13:32:59.670Z,97397.44
2023-02-02T13:35:32.443Z,97399.59
2023-02-02T13:38:04.372Z,97402.81
2023-02-02T13:40:35.311Z,97409.94
2023-02-02T13:43:16.459Z,97414.66
2023-02-02T13:45:50.587Z,97413.38
2023-02-02T13:48:24.428Z,97411.72
2023-02-02T13:51:06.314Z,97414.91
2023-02-02T13:53:48.390Z,97420.94
2023-02-02T13:56:40.414Z,97424.88
2023-02-02T13:59:21.826Z,97428.41
2023-02-02T14:01:50.959Z,97442.09
2023-02-02T14:04:23.174Z,97440.75
2023-02-02T14:06:57.333Z,97442.06
2023-02-02T14:09:27.402Z,97446.31
2023-02-02T14:11:58.487Z,97456.28
2023-02-02T14:14:34.516Z,97447.41
2023-02-02T14:17:03.869Z,97452.16
2023-02-02T14:19:52.366Z,97460.94
2023-02-02T14:22:39.283Z,97466.97
2023-02-02T14:25:41.498Z,97471.94
2023-02-02T14:28:11.860Z,97481.81
2023-02-02T14:30:41.211Z,97480.63
2023-02-02T14:33:39.772Z,97488.44
2023-02-02T14:36:14.087Z,97495.91
2023-02-02T14:39:19.135Z,97504.69
2023-02-02T14:42:25.116Z,97508.81
2023-02-02T14:45:29.632Z,97515.69
2023-02-02T14:48:00.660Z,97512.09
2023-02-02T14:50:36.200Z,97515.34
2023-02-02T14:53:06.724Z,97517.72
2023-02-02T14:55:35.035Z,97530.44
2023-02-02T14:58:05.056Z,97524.69
2023-02-02T15:00:34.007Z,97523.41
2023-02-02T15:03:48.079Z,97537.00
2023-02-02T15:06:30.926Z,97541.47
2023-02-02T15:09:27.701Z,97545.50
2023-02-02T15:12:17.991Z,97551.31
2023-02-02T15:14:49.387Z,97547.81
2023-02-02T15:17:24.293Z,97536.91
2023-02-02T15:19:56.192Z,97554.59
2023-02-02T15:22:30.576Z,97563.44
2023-02-02T15:24:59.355Z,97567.88
2023-02-02T15:27:27.169Z,97566.75
2023-02-02T15:29:58.000Z,97577.81
2023-02-02T15:32:28.249Z,97588.66
2023-02-02T15:34:59.495Z,97576.97
2023-02-02T15:37:31.771Z,97594.28
2023-02-02T15:40:01.687Z,97590.72
2023-02-02T15:42:53.433Z,97596.78
2023-02-02T15:45:35.739Z,97608.38
2023-02-02T15:48:08.465Z,97603.88
2023-02-02T15:50:37.625Z,97616.28
2023-02-02T15:53:05.711Z,97615.31
2023-02-02T15:55:35.910Z,97618.78
2023-02-02T15:58:04.050Z,97628.78
2023-02-02T16:00:34.350Z,97622.63
2023-02-02T16:03:05.977Z,97631.91
2023-02-02T16:05:44.844Z,97643.25
2023-02-02T16:08:18.051Z,97651.28
2023-02-02T16:10:46.820Z,97657.94
2023-02-02T16:13:26.601Z,97656.41
2023-02-02T16:15:59.160Z,97655.25
2023-02-02T16:18:26.819Z,97659.66
2023-02-02T16:20:56.147Z,97677.97
2023-02-02T16:23:27.275Z,97678.16
2023-02-02T16:25:56.205Z,97688.59
2023-02-02T16:28:24.307Z,97687.56
2023-02-02T16:30:52.531Z,97692.53
2023-02-02T16:33:39.567Z,97699.94
2023-02-02T16:36:25.903Z,97705.59
2023-02-02T16:38:54.921Z,97711.09
2023-02-02T16:41:27.674Z,97708.38
2023-02-02T16:43:55.921Z,97725.03
2023-02-02T16:46:45.593Z,97727.34
2023-02-02T16:49:18.890Z,97731.72
2023-02-02T16:51:49.159Z,97740.25
2023-02-02T16:54:20.434Z,97733.16
2023-02-02T16:56:50.023Z,97745.47
2023-02-02T16:59:20.297Z,97760.97
2023-02-02T17:01:50.112Z,97764.59
2023-02-02T17:04:20.778Z,97761.88
2023-02-02T17:06:53.062Z,97769.28
2023-02-02T17:09:33.232Z,97775.81
2023-02-02T17:12:09.352Z,97773.69
2023-02-02T17:14:51.897Z,97780.38
2023-02-02T17:17:19.547Z,97789.13
2023-02-02T17:19:47.896Z,97795.25
2023-02-02T17:22:18.880Z,97803.19
2023-02-02T17:24:48.000Z,97808.84
2023-02-02T17:27:17.543Z,97814.56
2023-02-02T17:29:45.267Z,97816.13
2023-02-02T17:32:13.844Z,97814.78
2023-02-02T17:34:41.533Z,97828.47
2023-02-02T17:37:09.175Z,97825.72
2023-02-02T17:39:38.092Z,97834.06
2023-02-02T17:42:05.963Z,97838.22
2023-02-02T17:44:34.424Z,97830.88
2023-02-02T17:47:01.915Z,97848.78
2023-02-02T17:49:29.413Z,97849.72
2023-02-02T17:51:57.326Z,97847.69
2023-02-02T17:54:24.829Z,97849.56
2023-02-02T17:56:53.669Z,97855.38
2023-02-02T17:59:21.210Z,97848.25
2023-02-02T18:01:48.908Z,97859.13
2023-02-02T18:04:16.596Z,97856.59
2023-02-02T18:06:44.129Z,97846.84
2023-02-02T18:09:11.647Z,97862.50
2023-02-02T18:11:42.125Z,97870.53
2023-02-02T18:14:11.469Z,97869.59
2023-02-02T18:16:39.035Z,97874.41
2023-02-02T18:19:06.648Z,97868.91
2023-02-02T18:21:34.156Z,97870.78
2023-02-02T18:24:01.916Z,97867.47
2023-02-02T18:26:31.250Z,97869.47
2023-02-02T18:28:59.293Z,97870.94
2023-02-02T18:31:28.340Z,97873.38
2023-02-02T18:33:55.888Z,97873.09
2023-02-02T18:36:23.738Z,97880.81
2023-02-02T18:38:53.755Z,97881.66
2023-02-02T18:41:22.146Z,97875.97
2023-02-02T18:43:52.724Z,97874.03
2023-02-02T18:46:21.122Z,97881.56
2023-02-02T18:48:50.227Z,97883.72
2023-02-02T18:51:19.019Z,97887.16
2023-02-02T18:53:47.836Z,97889.56
2023-02-02T18:56:15.887Z,97895.25
2023-02-02T18:58:43.553Z,97897.56
2023-02-02T19:01:12.244Z,97905.44
2023-02-02T19:03:40.921Z,97903.97
2023-02-02T19:06:28.281Z,97899.69
2023-02-02T19:08:56.061Z,97899.31
2023-02-02T19:11:26.638Z,97897.06
2023-02-02T19:13:54.429Z,97905.06
2023-02-02T19:16:25.527Z,97907.88
2023-02-02T19:18:53.327Z,97913.38
2023-02-02T19:21:22.393Z,97922.44
2023-02-02T19:23:50.001Z,97918.91
2023-02-02T19:26:23.198Z,97910.09
2023-02-02T19:28:51.399Z,97905.28
2023-02-02T19:31:19.468Z,97907.59
2023-02-02T19:33:48.442Z,97907.88
2023-02-02T19:36:17.295Z,97901.56
2023-02-02T19:38:46.736Z,97903.59
2023-02-02T19:41:18.470Z,97901.75
2023-02-02T19:43:47.749Z,97903.13
2023-02-02T19:46:22.510Z,97906.50
2023-02-02T19:48:53.112Z,97911.41
2023-02-02T19:51:39.120Z,97918.47
2023-02-02T19:54:23.087Z,97912.06
2023-02-02T19:56:51.519Z,97916.22
2023-02-02T19:59:21.039Z,97907.44
2023-02-02T20:01:50.678Z,97912.78
2023-02-02T20:04:19.736Z,97912.59
2023-02-02T20:06:58.450Z,97914.22
2023-02-02T20:09:31.079Z,97918.94
2023-02-02T20:11:58.599Z,97917.53
2023-02-02T20:14:33.071Z,97922.47
2023-02-02T20:17:02.294Z,97925.81
2023-02-02T20:19:35.231Z,97930.53
2023-02-02T20:22:03.363Z,97919.94
2023-02-02T20:24:36.839Z,97926.72
2023-02-02T20:27:15.855Z,97931.56
2023-02-02T20:29:45.406Z,97921.91
2023-02-02T20:32:21.078Z,97926.19
2023-02-02T20:34:50.431Z,97928.59
2023-02-02T20:37:23.225Z,97929.69
2023-02-02T20:39:54.863Z,97930.94
2023-02-02T20:42:22.948Z,97933.03
2023-02-02T20:44:51.135Z,97933.25
2023-02-02T20:47:18.893Z,97929.16
2023-02-02T20:49:47.035Z,97922.28
2023-02-02T20:52:21.847Z,97939.75
2023-02-02T20:54:49.538Z,97931.75
2023-02-02T20:57:18.646Z,97931.84
2023-02-02T20:59:46.285Z,97928.03
2023-02-02T21:02:19.078Z,97925.81
2023-02-02T21:04:47.657Z,97922.16
2023-02-02T21:07:16.872Z,97920.69
2023-02-02T21:09:44.748Z,97923.94
2023-02-02T21:12:12.333Z,97925.06
2023-02-02T21:14:41.537Z,97931.81
2023-02-02T21:17:15.283Z,97929.16
2023-02-02T21:19:44.195Z,97928.47
2023-02-02T21:22:11.863Z,97925.88
2023-02-02T21:24:39.479Z,97929.88
2023-02-02T21:27:07.646Z,97923.94
2023-02-02T21:29:35.443Z,97934.91
2023-02-02T21:32:05.139Z,97927.00
2023-02-02T21:34:33.076Z,97928.66
2023-02-02T21:37:00.662Z,97931.19
2023-02-02T21:39:29.769Z,97928.31
2023-02-02T21:42:11.653Z,97936.22
2023-02-02T21:44:40.839Z,97927.28
2023-02-02T21:47:24.402Z,97937.50
2023-02-02T21:49:52.469Z,97932.13
2023-02-02T21:52:20.969Z,97932.22
2023-02-02T21:54:49.349Z,97935.28
2023-02-02T21:57:21.522Z,97936.75
2023-02-02T21:59:56.363Z,97925.53
2023-02-02T22:02:39.132Z,97929.53
2023-02-02T22:05:18.825Z,97927.75
2023-02-02T22:07:48.700Z,97929.25
2023-02-02T22:10:27.061Z,97928.97
2023-02-02T22:12:54.886Z,97931.63
2023-02-02T22:15:24.336Z,97924.56
2023-02-02T22:17:53.190Z,97917.63
2023-02-02T22:20:31.064Z,97915.09
2023-02-02T22:22:58.577Z,97921.16
2023-02-02T22:25:33.817Z,97913.16
2023-02-02T22:28:03.796Z,97920.78
2023-02-02T22:30:35.184Z,97917.25
2023-02-02T22:33:05.599Z,97910.31
2023-02-02T22:35:33.278Z,97921.59
2023-02-02T22:38:01.018Z,97916.88
2023-02-02T22:40:29.163Z,97921.34
2023-02-02T22:42:58.009Z,97917.53
2023-02-02T22:45:25.817Z,97921.91
2023-02-02T22:47:53.801Z,97915.22
2023-02-02T22:50:26.210Z,97925.63
2023-02-02T22:52:54.056Z,97922.28
2023-02-02T22:55:21.879Z,97919.47
2023-02-02T22:57:49.714Z,97920.03
2023-02-02T23:00:18.942Z,97920.22
2023-02-02T23:02:46.619Z,97918.19
2023-02-02T23:05:16.591Z,97918.19
2023-02-02T23:07:45.860Z,97917.72
2023-02-02T23:10:15.170Z,97907.88
2023-02-02T23:12:43.205Z,97913.34
2023-02-02T23:15:11.665Z,97913.81
2023-02-02T23:17:39.296Z,97914.38
2023-02-02T23:20:11.131Z,97911.31
2023-02-02T23:22:38.775Z,97908.69
2023-02-02T23:25:08.667Z,97920.59
2023-02-02T23:27:36.245Z,97918.91
2023-02-02T23:30:04.575Z,97918.00
2023-02-02T23:32:32.100Z,97904.81
2023-02-02T23:34:59.631Z,97913.38
2023-02-02T23:37:27.264Z,97910.19
2023-02-02T23:39:54.808Z,97912.78
2023-02-02T23:42:23.686Z,97918.91
2023-02-02T23:44:51.423Z,97923.94
2023-02-02T23:47:19.260Z,97907.88
2023-02-02T23:49:46.885Z,97909.19
2023-02-02T23:52:14.621Z,97908.31
2023-02-02T23:54:42.413Z,97913.53
2023-02-02T23:57:10.265Z,97911.78
2023-02-02T23:59:39.161Z,97904.72
